Hauptseite
METAR-TAF:

METAR-TAF

Flughäfen :

London City Airport

London, England

Breite: 51-30N, Länge: 000-03E, Höhe: 5 m

Beobachtung

Neuester Wetterbericht von vor 32 Minuten, um 23:20 UTC
Wind 8 kt aus West/Südwest
Temperatur 11°C
Luftfeuchtigkeit 82%
Luftdruck 1030 hPa
Sichtweite 10 km oder mehr

METAR: EGLC 192320Z AUTO 24008KT 9999 NCD 11/08 Q1030

Zeit: 23:52 (23:52 UTC)

Prognose

Neuester Wetterbericht von vor 6 Stunden und 52 Minuten, um 17:00 UTC
Gültige Prognose vom 19 um 18 UTC bis 19 um 21 UTC
Wind 5 kt aus West/Südwest
Sichtweite 10 km oder mehr
Aufgelockert bewölkt in der Höhe von 3000 ft

TAF: EGLC 191700Z 1918/1921 25005KT 9999 SCT030

Wetterbeobachtungen und Prognosen von mehr als 4000 Flughäfen (METAR und TAF Bericht).

Die verfügbaren Stationen werden durch gelbe und rote Markierungen auf der Karte dargestellt.

Führen Sie die Maus auf sie, um den Namen der Station zu sehen.

Darauf klicken, um die Beobachtung von Wetterbeobachtungen und Prognosen zu sehen.

Um die Karte zu ändern : klicken Sie auf den grünen Tasten mit einem schwarzen Kreuz Zum Vergrößern, auf den grünen Button mit einem Gedankenstrich zu verkleinern, oder auf die grünen Pfeile für benachbarte Karten.


METAR-TAF: